Oosterschelde — PGNP — position and weather

sailwx.info

Track history (hours):
 
Tides and Currents Weather Stations Pressure Air Temp Water Temp Dewpoint Dewpoint Depression Visibility Wind Speed Wind Dir Waves Ship Positions

Oosterschelde (Netherlands)

Ship's website: http://www.oosterschelde.nl/indexuk.htm

Last reported at 2016-Nov-20 14:33 UTC. Time now 2017-Mar-28 08:17 UTC.
Position N 28°17' W 015°47'.
Warning: this ship's position is months out of date.

Length 49 m; draft 2.9 m.

Type: Sailing vessel. MMSI: 246010985.

Date/timePositionNaut miles runAvg speedWind from/ knotsBaromVisibWave heightAir tempDewpointWater temp
2016-Nov-20 14:33N 28°17' W 015°47'5 5.3
2016-Nov-20 13:33N 28°16' W 015°41'5 4.5
2016-Nov-20 12:33N 28°15' W 015°36'13 4.2
2016-Nov-20 09:33N 28°07' W 015°25'1 1.3
2016-Nov-20 08:33N 28°08' W 015°26'0 0.0
2016-Nov-20 07:33N 28°08' W 015°26'0 0.0
2016-Nov-20 06:33N 28°08' W 015°26'0 0.0
2016-Nov-20 05:33N 28°08' W 015°26'0 0.0
2016-Nov-20 04:33N 28°08' W 015°26'0 0.0
2016-Nov-20 03:30N 28°08' W 015°26'0 0.0
2016-Nov-20 01:33N 28°08' W 015°26'0 0.0
2016-Nov-19 23:33N 28°08' W 015°26'0 0.0
2016-Nov-19 22:33N 28°08' W 015°26'0 0.0
2016-Nov-19 20:34N 28°08' W 015°26'1 0.8
2016-Nov-19 19:33N 28°08' W 015°25'9 4.7
2016-Nov-19 17:33N 28°15' W 015°32'7 6.7
2016-Nov-19 16:33N 28°18' W 015°39'  
2016-Nov-10 15:07N 36°58' W 008°37'  
Track history (hours):
 
Tides and Currents Weather Stations Pressure Air Temp Water Temp Dewpoint Dewpoint Depression Visibility Wind Speed Wind Dir Waves Ship Positions

Oosterschelde (Netherlands)

Ship's website: http://www.oosterschelde.nl/indexuk.htm

Last reported at 2016-Nov-20 14:33 UTC. Time now 2017-Mar-28 08:17 UTC.
Position N 28°17' W 015°47'.
Warning: this ship's position is months out of date.

Length 49 m; draft 2.9 m.

Type: Sailing vessel. MMSI: 246010985.

Date/timePositionNaut miles runAvg speedWind from/ knotsBaromVisibWave heightAir tempDewpointWater temp
2016-Nov-20 14:33N 28°17' W 015°47'5 5.3
2016-Nov-20 13:33N 28°16' W 015°41'5 4.5
2016-Nov-20 12:33N 28°15' W 015°36'13 4.2
2016-Nov-20 09:33N 28°07' W 015°25'1 1.3
2016-Nov-20 08:33N 28°08' W 015°26'0 0.0
2016-Nov-20 07:33N 28°08' W 015°26'0 0.0
2016-Nov-20 06:33N 28°08' W 015°26'0 0.0
2016-Nov-20 05:33N 28°08' W 015°26'0 0.0
2016-Nov-20 04:33N 28°08' W 015°26'0 0.0
2016-Nov-20 03:30N 28°08' W 015°26'0 0.0
2016-Nov-20 01:33N 28°08' W 015°26'0 0.0
2016-Nov-19 23:33N 28°08' W 015°26'0 0.0
2016-Nov-19 22:33N 28°08' W 015°26'0 0.0
2016-Nov-19 20:34N 28°08' W 015°26'1 0.8
2016-Nov-19 19:33N 28°08' W 015°25'9 4.7
2016-Nov-19 17:33N 28°15' W 015°32'7 6.7
2016-Nov-19 16:33N 28°18' W 015°39'  
2016-Nov-10 15:07N 36°58' W 008°37'  

Dump ship's entire track history